Time;durP1;ratioP1;P1;durP2;ratioP2;P2;SDS_P1;SDS_P2;PMS_P1;PMS_P2;Temp;Humidity;BMP_temperature;BMP_pressure;BME280_temperature;BME280_humidity;BME280_pressure;Samples;Min_cycle;Max_cycle;Signal;HPM_P1;HPM_P2
2024/01/15 00:01:48;;;;;;;10.05;2.90;;;1.80;99.90;;;;;;5055275;28;20044;-64
2024/01/15 00:04:15;;;;;;;10.55;3.38;;;1.90;99.90;;;;;;5055820;28;20048;-64
2024/01/15 00:06:42;;;;;;;7.22;2.55;;;2.10;99.90;;;;;;5055271;28;20455;-65
2024/01/15 00:09:08;;;;;;;9.07;2.70;;;1.80;99.90;;;;;;5054217;28;20502;-64
2024/01/15 00:11:35;;;;;;;4.15;2.17;;;1.80;99.90;;;;;;5055104;28;20443;-64
2024/01/15 00:14:03;;;;;;;10.02;2.95;;;1.80;99.90;;;;;;5072347;28;20446;-65
2024/01/15 00:16:31;;;;;;;7.25;3.05;;;1.70;99.90;;;;;;5055609;28;20041;-64
2024/01/15 00:18:58;;;;;;;6.20;2.80;;;1.70;99.90;;;;;;5054489;28;20056;-65
2024/01/15 00:21:25;;;;;;;7.38;2.40;;;1.70;99.90;;;;;;5073130;28;20063;-64
2024/01/15 00:23:51;;;;;;;4.53;3.13;;;1.70;99.90;;;;;;5074914;28;20052;-64
2024/01/15 00:26:18;;;;;;;7.53;2.95;;;1.70;99.90;;;;;;5075145;28;20083;-65
2024/01/15 00:28:45;;;;;;;5.65;2.83;;;1.60;99.90;;;;;;5073942;28;20102;-64
2024/01/15 00:31:12;;;;;;;8.43;2.63;;;1.60;99.90;;;;;;5075569;28;20048;-64
2024/01/15 00:33:40;;;;;;;10.05;2.95;;;1.60;99.90;;;;;;5075464;28;20110;-64
2024/01/15 00:36:08;;;;;;;6.85;2.60;;;1.60;99.90;;;;;;5074462;28;20043;-64
2024/01/15 00:38:35;;;;;;;4.32;2.50;;;1.60;99.90;;;;;;5075658;28;20097;-64
2024/01/15 00:41:02;;;;;;;4.18;2.10;;;1.60;99.90;;;;;;5076164;28;20052;-64
2024/01/15 00:43:29;;;;;;;3.97;2.20;;;1.50;99.90;;;;;;5094005;28;20043;-64
2024/01/15 00:45:56;;;;;;;4.45;2.35;;;1.50;99.90;;;;;;5075353;28;20036;-63
2024/01/15 00:48:23;;;;;;;3.55;2.30;;;1.50;99.90;;;;;;5072048;28;20457;-63
2024/01/15 00:50:51;;;;;;;10.20;2.42;;;1.50;99.90;;;;;;5074978;28;21397;-65
2024/01/15 00:53:18;;;;;;;8.80;3.13;;;1.50;99.90;;;;;;5074186;28;20446;-64
2024/01/15 00:55:45;;;;;;;8.63;3.25;;;1.50;99.90;;;;;;5073594;28;20049;-64
2024/01/15 00:58:12;;;;;;;9.05;2.90;;;1.40;99.90;;;;;;5074748;28;20105;-64
2024/01/15 01:00:39;;;;;;;5.93;2.50;;;1.50;99.90;;;;;;5070911;28;20065;-64
2024/01/15 01:03:06;;;;;;;3.58;2.42;;;1.50;99.90;;;;;;5075055;28;20049;-64
2024/01/15 01:05:34;;;;;;;12.38;3.35;;;1.50;99.90;;;;;;5073961;28;20040;-63
2024/01/15 01:08:03;;;;;;;14.98;3.50;;;1.60;99.90;;;;;;5075038;28;20117;-65
2024/01/15 01:10:30;;;;;;;12.00;4.28;;;1.60;99.90;;;;;;5075533;28;20101;-64
2024/01/15 01:12:57;;;;;;;15.63;4.00;;;1.60;99.90;;;;;;5073532;28;20052;-64
2024/01/15 01:15:24;;;;;;;13.73;3.80;;;1.60;99.90;;;;;;5074178;28;20045;-64
2024/01/15 01:17:51;;;;;;;25.20;4.93;;;1.70;99.90;;;;;;5073828;28;20054;-64
2024/01/15 01:20:18;;;;;;;13.18;4.20;;;1.70;99.90;;;;;;5084186;28;20052;-64
2024/01/15 01:22:45;;;;;;;14.23;4.05;;;1.70;99.90;;;;;;5053890;28;20049;-64
2024/01/15 01:25:13;;;;;;;10.07;3.50;;;1.70;99.90;;;;;;5053385;28;20053;-63
2024/01/15 01:27:40;;;;;;;7.47;3.40;;;1.70;99.90;;;;;;5072255;28;20499;-64
2024/01/15 01:30:08;;;;;;;11.75;3.47;;;1.70;99.90;;;;;;5053593;28;20447;-64
2024/01/15 01:32:35;;;;;;;11.82;3.30;;;1.70;99.90;;;;;;5072715;28;20052;-64
2024/01/15 01:35:02;;;;;;;18.50;3.20;;;1.70;99.90;;;;;;5053457;28;20392;-64
2024/01/15 01:37:29;;;;;;;11.23;3.35;;;1.80;99.90;;;;;;5055031;28;20530;-64
2024/01/15 01:39:56;;;;;;;8.77;2.97;;;1.80;99.90;;;;;;5053766;28;20447;-64
2024/01/15 01:42:24;;;;;;;13.13;3.80;;;1.90;99.90;;;;;;5054500;28;20056;-64
2024/01/15 01:44:51;;;;;;;9.05;3.13;;;1.90;99.90;;;;;;5054980;28;20052;-64
2024/01/15 01:47:18;;;;;;;9.68;3.42;;;1.90;99.90;;;;;;5054528;28;20049;-65
2024/01/15 01:49:45;;;;;;;7.72;3.35;;;1.90;99.90;;;;;;5054366;28;20052;-64
2024/01/15 01:52:12;;;;;;;14.45;3.90;;;1.90;99.90;;;;;;5072429;28;20098;-64
2024/01/15 01:54:41;;;;;;;9.30;3.40;;;2.10;99.90;;;;;;5054747;28;20048;-64
2024/01/15 01:57:09;;;;;;;14.00;4.05;;;1.80;99.90;;;;;;5054158;28;20048;-64
2024/01/15 01:59:38;;;;;;;10.63;3.03;;;1.70;99.90;;;;;;5054869;28;20105;-64
2024/01/15 02:02:06;;;;;;;15.63;3.38;;;1.70;99.90;;;;;;5072330;28;20085;-65
2024/01/15 02:04:35;;;;;;;10.40;3.15;;;1.70;99.90;;;;;;5054036;28;20044;-64
2024/01/15 02:07:02;;;;;;;12.75;3.72;;;1.70;99.90;;;;;;5072180;28;20110;-65
2024/01/15 02:09:29;;;;;;;12.18;3.60;;;1.70;99.90;;;;;;5054034;28;20087;-65
2024/01/15 02:11:56;;;;;;;13.32;3.97;;;1.70;99.90;;;;;;5054417;28;20549;-63
2024/01/15 02:14:23;;;;;;;13.73;4.03;;;1.70;99.90;;;;;;5054484;28;20044;-64
2024/01/15 02:16:51;;;;;;;6.88;3.10;;;1.70;99.90;;;;;;5053847;28;20489;-63
2024/01/15 02:19:18;;;;;;;7.97;2.75;;;1.70;99.90;;;;;;5072405;28;20385;-63
2024/01/15 02:21:45;;;;;;;12.98;3.78;;;1.80;99.90;;;;;;5091551;28;20044;-63
2024/01/15 02:24:14;;;;;;;10.57;3.08;;;1.70;99.90;;;;;;5091071;28;20089;-64
2024/01/15 02:26:41;;;;;;;10.20;3.42;;;1.70;99.90;;;;;;5091713;28;20039;-63
2024/01/15 02:29:09;;;;;;;7.65;3.63;;;2.00;99.90;;;;;;5073498;28;20048;-64
2024/01/15 02:31:37;;;;;;;9.05;3.55;;;1.70;99.90;;;;;;5072941;28;20139;-63
2024/01/15 02:34:04;;;;;;;9.93;3.20;;;2.10;99.90;;;;;;5070672;28;20487;-63
2024/01/15 02:36:31;;;;;;;11.32;3.05;;;1.70;99.90;;;;;;5054290;28;20040;-64
2024/01/15 02:38:57;;;;;;;15.35;3.05;;;1.70;99.90;;;;;;5052738;28;20071;-64
2024/01/15 02:41:26;;;;;;;17.98;3.45;;;1.70;99.90;;;;;;5072447;28;20392;-64
2024/01/15 02:43:53;;;;;;;10.90;3.83;;;1.70;99.90;;;;;;5053762;28;20115;-64
2024/01/15 02:46:20;;;;;;;10.93;3.10;;;1.70;99.90;;;;;;5052073;28;20045;-64
2024/01/15 02:48:45;;;;;;;11.32;3.50;;;1.70;99.90;;;;;;5053799;28;20053;-64
2024/01/15 02:51:12;;;;;;;10.30;3.30;;;1.70;99.90;;;;;;5054457;28;20052;-64
2024/01/15 02:53:40;;;;;;;7.82;3.35;;;1.80;99.90;;;;;;5057411;28;20484;-63
2024/01/15 02:56:08;;;;;;;7.80;3.10;;;1.80;99.90;;;;;;5056884;28;20044;-63
2024/01/15 02:58:36;;;;;;;13.25;4.90;;;1.80;99.90;;;;;;5058354;28;20049;-63
2024/01/15 03:01:03;;;;;;;7.97;3.17;;;1.80;99.90;;;;;;5075801;28;20048;-63
2024/01/15 03:03:30;;;;;;;13.35;3.17;;;1.80;99.90;;;;;;5076324;28;20488;-64
2024/01/15 03:05:57;;;;;;;7.00;3.25;;;1.80;99.90;;;;;;5075722;28;20565;-63
2024/01/15 03:08:24;;;;;;;13.15;3.95;;;2.20;99.90;;;;;;5057107;28;20435;-64
2024/01/15 03:10:51;;;;;;;12.35;4.10;;;2.20;99.90;;;;;;5056270;28;20569;-63
2024/01/15 03:13:19;;;;;;;11.70;4.15;;;1.90;99.90;;;;;;5075454;28;20045;-63
2024/01/15 03:15:47;;;;;;;11.57;4.03;;;1.90;99.90;;;;;;5076220;28;20044;-65
2024/01/15 03:18:14;;;;;;;13.63;4.10;;;1.90;99.90;;;;;;5058240;28;20056;-64
2024/01/15 03:20:41;;;;;;;12.63;3.70;;;1.90;99.90;;;;;;5067345;28;20056;-64
2024/01/15 03:23:08;;;;;;;19.20;4.75;;;2.00;99.90;;;;;;5095454;28;20040;-64
2024/01/15 03:25:34;;;;;;;16.48;4.57;;;1.80;99.90;;;;;;5076566;28;20396;-64
2024/01/15 03:28:01;;;;;;;20.58;5.10;;;1.90;99.90;;;;;;5094929;28;20040;-64
2024/01/15 03:30:28;;;;;;;9.68;3.58;;;1.80;99.90;;;;;;5095498;28;20047;-64
2024/01/15 03:32:57;;;;;;;19.25;4.75;;;1.80;99.90;;;;;;5077497;28;20044;-64
2024/01/15 03:35:23;;;;;;;16.48;4.15;;;1.80;99.90;;;;;;5076899;28;20056;-63
2024/01/15 03:37:50;;;;;;;15.27;4.07;;;1.80;99.90;;;;;;5077441;28;20127;-64
2024/01/15 03:40:17;;;;;;;21.70;4.47;;;1.70;99.90;;;;;;5077420;28;20059;-64
2024/01/15 03:42:44;;;;;;;23.98;5.03;;;1.70;99.90;;;;;;5076636;28;20106;-64
2024/01/15 03:45:11;;;;;;;19.23;4.32;;;1.60;99.90;;;;;;5077251;28;20044;-64
2024/01/15 03:47:38;;;;;;;18.30;3.95;;;1.60;99.90;;;;;;5075846;28;20123;-63
2024/01/15 03:50:07;;;;;;;10.25;3.83;;;1.70;99.90;;;;;;5092468;28;20040;-64
2024/01/15 03:52:34;;;;;;;15.50;3.80;;;1.70;99.90;;;;;;5076936;28;20510;-64
2024/01/15 03:55:00;;;;;;;10.38;3.17;;;1.80;99.90;;;;;;5076580;28;20430;-64
2024/01/15 03:57:27;;;;;;;8.88;2.80;;;1.90;99.90;;;;;;5092772;28;20380;-64
2024/01/15 03:59:54;;;;;;;11.55;3.28;;;1.90;99.90;;;;;;5094904;28;20040;-64
2024/01/15 04:02:21;;;;;;;7.25;2.83;;;2.00;99.90;;;;;;5074771;28;20048;-64
2024/01/15 04:04:48;;;;;;;4.68;3.30;;;2.10;99.90;;;;;;5075867;28;20055;-64
2024/01/15 04:07:16;;;;;;;8.38;3.38;;;2.20;99.90;;;;;;5075562;28;20102;-64
2024/01/15 04:09:43;;;;;;;9.00;2.78;;;2.20;99.90;;;;;;5074362;28;20060;-63
2024/01/15 04:12:10;;;;;;;7.90;2.30;;;2.20;99.90;;;;;;5094862;28;20085;-63
2024/01/15 04:14:37;;;;;;;7.53;3.45;;;2.50;99.90;;;;;;5076700;28;20101;-63
2024/01/15 04:17:04;;;;;;;8.80;2.88;;;2.30;99.90;;;;;;5093967;28;20055;-63
2024/01/15 04:19:31;;;;;;;7.78;3.50;;;2.30;99.90;;;;;;5076184;28;20044;-63
2024/01/15 04:21:58;;;;;;;11.52;3.40;;;2.30;99.90;;;;;;5092572;28;20044;-63
2024/01/15 04:24:26;;;;;;;9.23;2.72;;;2.20;99.90;;;;;;5075284;28;20585;-64
2024/01/15 04:26:53;;;;;;;7.68;2.83;;;2.20;99.90;;;;;;5074754;28;20043;-64
2024/01/15 04:29:20;;;;;;;8.85;2.60;;;2.10;99.90;;;;;;5094282;28;20088;-64
2024/01/15 04:31:47;;;;;;;13.05;3.03;;;2.30;99.90;;;;;;5076051;28;20048;-64
2024/01/15 04:34:14;;;;;;;6.72;2.78;;;2.00;99.90;;;;;;5076244;28;20506;-64
2024/01/15 04:36:41;;;;;;;5.30;2.42;;;1.90;99.90;;;;;;5076632;28;20536;-64
2024/01/15 04:39:08;;;;;;;4.57;2.50;;;1.90;99.90;;;;;;5075655;28;20128;-63
2024/01/15 04:41:36;;;;;;;8.43;2.42;;;1.80;99.90;;;;;;5076035;28;20076;-63
2024/01/15 04:44:03;;;;;;;7.78;2.60;;;1.80;99.90;;;;;;5074394;28;20052;-63
2024/01/15 04:46:30;;;;;;;8.75;2.90;;;1.70;99.90;;;;;;5075101;28;20511;-65
2024/01/15 04:48:57;;;;;;;4.15;2.45;;;1.60;99.90;;;;;;5074792;28;20044;-64
2024/01/15 04:51:24;;;;;;;5.85;2.90;;;1.50;99.90;;;;;;5093314;28;20061;-64
2024/01/15 04:53:51;;;;;;;3.17;2.22;;;1.60;99.90;;;;;;5074612;28;20041;-64
2024/01/15 04:56:18;;;;;;;8.43;2.65;;;1.30;99.90;;;;;;5073852;28;20048;-64
2024/01/15 04:58:46;;;;;;;6.78;2.22;;;1.30;99.90;;;;;;5074541;28;20067;-64
2024/01/15 05:01:13;;;;;;;3.35;2.38;;;1.20;99.90;;;;;;5093781;28;20046;-64
2024/01/15 05:03:41;;;;;;;3.70;2.70;;;1.20;99.90;;;;;;5093563;28;20052;-65
2024/01/15 05:06:08;;;;;;;6.15;2.20;;;1.10;99.90;;;;;;5074022;28;20048;-65
2024/01/15 05:08:35;;;;;;;8.27;2.28;;;1.10;99.90;;;;;;5093441;28;20397;-64
2024/01/15 05:11:02;;;;;;;5.53;2.83;;;1.00;99.90;;;;;;5074589;28;20044;-64
2024/01/15 05:13:29;;;;;;;7.82;2.30;;;0.90;99.90;;;;;;5072607;28;20041;-65
2024/01/15 05:15:57;;;;;;;6.93;2.30;;;1.30;99.90;;;;;;5074946;28;20117;-64
2024/01/15 05:18:24;;;;;;;7.03;2.20;;;0.90;99.90;;;;;;5074000;28;20056;-65
2024/01/15 05:20:52;;;;;;;6.80;2.30;;;0.90;99.90;;;;;;5074270;28;20052;-64
2024/01/15 05:23:19;;;;;;;10.40;2.72;;;0.80;99.90;;;;;;5093304;28;20541;-64
2024/01/15 05:25:45;;;;;;;9.82;2.70;;;0.80;99.90;;;;;;5093112;28;20052;-64
2024/01/15 05:28:12;;;;;;;5.40;2.33;;;0.80;99.90;;;;;;5074551;28;20044;-64
2024/01/15 05:30:39;;;;;;;12.98;3.65;;;0.80;99.90;;;;;;5093196;28;20445;-64
2024/01/15 05:33:08;;;;;;;8.95;3.10;;;0.70;99.90;;;;;;5093214;28;20052;-64
2024/01/15 05:35:35;;;;;;;8.63;3.45;;;0.70;99.90;;;;;;5072683;28;20452;-64
2024/01/15 05:38:02;;;;;;;12.60;3.28;;;0.70;99.90;;;;;;5074958;28;20109;-64
2024/01/15 05:40:29;;;;;;;7.30;3.10;;;0.70;99.90;;;;;;5092395;28;20044;-63
2024/01/15 05:42:56;;;;;;;14.52;3.72;;;0.70;99.90;;;;;;5092933;28;20506;-64
2024/01/15 05:45:23;;;;;;;10.05;3.38;;;0.70;99.90;;;;;;5073749;28;20553;-63
2024/01/15 05:47:50;;;;;;;11.40;3.55;;;0.70;99.90;;;;;;5071878;28;20101;-64
2024/01/15 05:50:18;;;;;;;9.63;3.47;;;0.70;99.90;;;;;;5074385;28;20173;-63
2024/01/15 05:52:45;;;;;;;8.77;3.90;;;0.70;99.90;;;;;;5092787;28;20102;-64
2024/01/15 05:55:12;;;;;;;7.03;3.47;;;0.70;99.90;;;;;;5091986;28;20040;-63
2024/01/15 05:57:39;;;;;;;13.77;3.95;;;0.70;99.90;;;;;;5092866;28;20066;-63
2024/01/15 06:00:08;;;;;;;12.85;4.00;;;0.70;99.90;;;;;;5092503;28;20048;-64
2024/01/15 06:02:35;;;;;;;15.82;4.40;;;0.80;99.90;;;;;;5073879;28;20090;-63
2024/01/15 06:05:02;;;;;;;13.30;4.43;;;0.90;99.90;;;;;;5074333;28;20044;-63
2024/01/15 06:07:31;;;;;;;8.10;3.50;;;0.90;99.90;;;;;;5075888;28;20059;-64
2024/01/15 06:09:58;;;;;;;11.60;4.05;;;1.00;99.90;;;;;;5084136;28;20479;-63
2024/01/15 06:12:24;;;;;;;11.27;3.90;;;1.00;99.90;;;;;;5071728;28;20051;-63
2024/01/15 06:14:52;;;;;;;9.80;3.88;;;1.20;99.90;;;;;;5071098;28;20056;-63
2024/01/15 06:17:19;;;;;;;18.20;4.22;;;1.20;99.90;;;;;;5088440;28;20079;-64
2024/01/15 06:19:46;;;;;;;12.35;4.55;;;1.20;99.90;;;;;;5087520;28;20049;-64
2024/01/15 06:22:12;;;;;;;10.95;3.20;;;1.20;99.90;;;;;;5071689;28;20053;-63
2024/01/15 06:24:41;;;;;;;13.50;4.10;;;1.20;99.90;;;;;;5051454;28;20069;-63
2024/01/15 06:27:08;;;;;;;10.23;3.45;;;1.20;99.90;;;;;;5052705;28;20491;-62
2024/01/15 06:29:38;;;;;;;14.63;3.92;;;1.20;99.90;;;;;;5050652;28;20056;-64
2024/01/15 06:32:05;;;;;;;16.17;4.60;;;1.50;99.90;;;;;;5050464;28;20117;-64
2024/01/15 06:34:32;;;;;;;10.15;3.63;;;1.10;99.90;;;;;;5049581;28;20048;-64
2024/01/15 06:36:59;;;;;;;7.47;3.92;;;1.10;99.90;;;;;;5052088;28;20095;-64
2024/01/15 06:39:26;;;;;;;14.80;3.58;;;1.10;99.90;;;;;;5071571;28;20181;-65
2024/01/15 06:41:54;;;;;;;9.38;3.47;;;1.10;99.90;;;;;;5071367;28;20450;-64
2024/01/15 06:44:21;;;;;;;12.25;3.58;;;1.20;99.90;;;;;;5051297;28;20045;-64
2024/01/15 06:46:48;;;;;;;11.60;3.47;;;1.30;99.90;;;;;;5052439;28;20049;-63
2024/01/15 06:49:15;;;;;;;12.45;3.50;;;1.30;99.90;;;;;;5051398;28;20057;-63
2024/01/15 06:51:42;;;;;;;11.00;3.33;;;1.30;99.90;;;;;;5051983;28;20067;-63
2024/01/15 06:54:09;;;;;;;17.08;3.65;;;1.20;99.90;;;;;;5052591;28;20079;-64
2024/01/15 06:56:36;;;;;;;12.25;4.18;;;1.20;99.90;;;;;;5070072;28;20098;-63
2024/01/15 06:59:04;;;;;;;17.90;4.78;;;1.20;99.90;;;;;;5052566;28;20479;-62
2024/01/15 07:01:31;;;;;;;10.60;3.58;;;1.20;99.90;;;;;;5052203;28;20045;-62
2024/01/15 07:03:58;;;;;;;12.32;3.30;;;1.20;99.90;;;;;;5070725;28;20423;-64
2024/01/15 07:06:25;;;;;;;9.85;3.80;;;1.20;99.90;;;;;;5051430;28;20049;-63
2024/01/15 07:08:52;;;;;;;18.23;3.90;;;1.20;99.90;;;;;;5052176;28;20040;-62
2024/01/15 07:11:19;;;;;;;11.07;3.50;;;1.40;99.90;;;;;;5052289;28;20102;-63
2024/01/15 07:13:46;;;;;;;12.82;3.65;;;1.20;99.90;;;;;;5051370;28;20049;-63
2024/01/15 07:16:14;;;;;;;9.43;3.15;;;1.20;99.90;;;;;;5050541;28;20397;-62
2024/01/15 07:18:41;;;;;;;11.32;4.97;;;1.20;99.90;;;;;;5050520;28;20095;-63
2024/01/15 07:21:08;;;;;;;9.35;2.92;;;1.20;99.90;;;;;;5070247;28;20057;-63
2024/01/15 07:23:35;;;;;;;13.75;3.25;;;1.20;99.90;;;;;;5053152;28;20086;-63
2024/01/15 07:26:02;;;;;;;8.85;3.35;;;1.30;99.90;;;;;;5051527;28;20102;-63
2024/01/15 07:28:30;;;;;;;6.60;2.80;;;1.00;99.90;;;;;;5047692;28;20043;-63
2024/01/15 07:30:57;;;;;;;8.20;2.55;;;1.10;99.90;;;;;;5051588;28;20049;-64
2024/01/15 07:33:26;;;;;;;5.10;2.47;;;1.00;99.90;;;;;;5050515;28;20468;-64
2024/01/15 07:35:52;;;;;;;9.05;3.05;;;1.10;99.90;;;;;;5047308;28;20094;-64
2024/01/15 07:38:19;;;;;;;8.35;2.92;;;1.00;99.90;;;;;;5067603;28;20496;-63
2024/01/15 07:40:49;;;;;;;13.32;3.45;;;1.00;99.90;;;;;;5053462;28;20404;-63
2024/01/15 07:43:16;;;;;;;8.32;2.92;;;0.90;99.90;;;;;;5054185;28;20484;-63
2024/01/15 07:45:42;;;;;;;13.77;3.50;;;0.90;99.90;;;;;;5055776;28;20106;-63
2024/01/15 07:48:09;;;;;;;9.38;2.92;;;1.20;99.90;;;;;;5053399;28;20484;-62
2024/01/15 07:50:38;;;;;;;12.70;3.40;;;1.00;99.90;;;;;;5055490;28;20076;-63
2024/01/15 07:53:05;;;;;;;13.75;3.47;;;1.10;99.90;;;;;;5054286;28;20064;-64
2024/01/15 07:55:32;;;;;;;9.23;2.83;;;1.10;99.90;;;;;;5071031;28;20093;-63
2024/01/15 07:57:59;;;;;;;9.57;3.63;;;1.10;99.90;;;;;;5055090;28;20041;-64
2024/01/15 08:00:26;;;;;;;7.85;2.92;;;1.10;99.90;;;;;;5051554;28;20072;-63
2024/01/15 08:02:53;;;;;;;10.05;3.17;;;1.10;99.90;;;;;;5055673;28;20048;-64
2024/01/15 08:05:21;;;;;;;8.13;3.17;;;1.00;99.90;;;;;;5055640;28;20503;-64
2024/01/15 08:07:49;;;;;;;8.20;3.30;;;0.90;99.90;;;;;;5053935;28;20128;-63
2024/01/15 08:10:16;;;;;;;7.57;3.22;;;0.90;99.90;;;;;;5051918;28;20090;-63
2024/01/15 08:12:43;;;;;;;10.20;3.20;;;0.90;99.90;;;;;;5054326;28;20088;-63
2024/01/15 08:15:10;;;;;;;5.97;3.08;;;0.90;99.90;;;;;;5052958;28;20057;-63
2024/01/15 08:17:37;;;;;;;9.52;2.95;;;1.00;99.90;;;;;;5070660;28;20052;-64
2024/01/15 08:20:05;;;;;;;9.30;3.20;;;1.00;99.90;;;;;;5062215;28;20487;-64
2024/01/15 08:22:32;;;;;;;5.85;3.10;;;1.00;99.90;;;;;;5074323;28;20514;-62
2024/01/15 08:25:00;;;;;;;8.50;2.90;;;1.00;99.90;;;;;;5073582;28;20381;-63
2024/01/15 08:27:27;;;;;;;8.55;3.30;;;1.00;99.90;;;;;;5074938;28;20048;-63
2024/01/15 08:29:54;;;;;;;3.92;2.38;;;1.00;99.90;;;;;;5071415;28;20048;-63
2024/01/15 08:32:21;;;;;;;5.50;2.70;;;1.10;99.90;;;;;;5074794;28;20044;-63
2024/01/15 08:34:52;;;;;;;5.70;2.90;;;1.20;99.90;;;;;;5073747;28;20114;-63
2024/01/15 08:37:24;;;;;;;7.53;2.47;;;1.30;99.90;;;;;;5073779;28;20445;-63
2024/01/15 08:39:51;;;;;;;7.18;2.60;;;1.50;99.90;;;;;;5093741;28;20051;-63
2024/01/15 08:42:19;;;;;;;4.53;1.92;;;2.00;99.90;;;;;;5072300;28;20098;-63
2024/01/15 08:44:46;;;;;;;3.85;2.03;;;2.90;99.90;;;;;;5072845;28;20055;-64
2024/01/15 08:47:13;;;;;;;7.50;1.85;;;3.20;99.90;;;;;;5072103;28;20074;-63
2024/01/15 08:49:41;;;;;;;4.03;1.80;;;3.30;99.90;;;;;;5073178;28;20052;-63
2024/01/15 08:52:08;;;;;;;6.13;2.17;;;3.40;99.90;;;;;;5070905;28;20131;-63
2024/01/15 08:54:35;;;;;;;5.15;1.95;;;3.30;99.90;;;;;;5074416;28;20135;-64
2024/01/15 08:57:01;;;;;;;6.15;2.28;;;3.50;99.90;;;;;;5073244;28;20052;-62
2024/01/15 08:59:30;;;;;;;6.93;2.38;;;3.30;99.90;;;;;;5073476;28;20093;-63
2024/01/15 09:01:57;;;;;;;7.55;2.38;;;3.30;99.90;;;;;;5070100;28;20052;-62
2024/01/15 09:04:24;;;;;;;9.00;2.60;;;3.10;99.90;;;;;;5074051;28;20090;-63
2024/01/15 09:06:51;;;;;;;6.75;2.15;;;2.80;99.90;;;;;;5071763;28;20051;-63
2024/01/15 09:09:18;;;;;;;5.95;1.95;;;2.80;99.90;;;;;;5073333;28;20044;-63
2024/01/15 09:11:46;;;;;;;3.80;1.90;;;2.70;99.90;;;;;;5074471;28;20459;-64
2024/01/15 09:14:14;;;;;;;4.95;2.05;;;2.60;99.90;;;;;;5071368;28;20102;-64
2024/01/15 09:16:42;;;;;;;7.85;2.58;;;2.60;99.90;;;;;;5092700;28;20123;-63
2024/01/15 09:19:09;;;;;;;9.38;2.20;;;2.70;99.90;;;;;;5073393;28;20071;-64
2024/01/15 09:21:36;;;;;;;5.05;2.35;;;2.80;99.90;;;;;;5072011;28;20056;-64
2024/01/15 09:24:03;;;;;;;9.55;2.05;;;2.90;99.90;;;;;;5092361;28;20052;-64
2024/01/15 09:26:30;;;;;;;4.45;2.15;;;3.00;99.90;;;;;;5072272;28;20102;-63
2024/01/15 09:28:58;;;;;;;5.15;1.90;;;3.00;99.90;;;;;;5073565;28;20121;-64
2024/01/15 09:31:25;;;;;;;5.85;2.03;;;3.00;99.90;;;;;;5072887;28;20573;-64
2024/01/15 09:33:56;;;;;;;9.75;2.30;;;2.90;99.90;;;;;;5091646;28;20105;-64
2024/01/15 09:36:22;;;;;;;;;;;2.90;99.90;;;;;;5073778;28;20075;-63
2024/01/15 09:38:49;;;;;;;6.88;2.33;;;2.80;99.90;;;;;;5071930;28;19928;-63
2024/01/15 09:41:16;;;;;;;10.27;2.30;;;2.70;99.90;;;;;;5072629;28;20044;-63
2024/01/15 09:43:44;;;;;;;8.23;2.60;;;2.50;99.90;;;;;;5069819;28;20059;-63
2024/01/15 09:46:12;;;;;;;9.30;2.80;;;2.60;99.90;;;;;;5090126;28;20425;-63
2024/01/15 09:48:39;;;;;;;7.47;2.97;;;2.70;99.90;;;;;;5091248;28;20102;-63
2024/01/15 09:51:07;;;;;;;8.20;3.67;;;3.10;99.90;;;;;;5072868;28;20411;-63
2024/01/15 09:53:35;;;;;;;11.60;3.17;;;3.20;99.90;;;;;;5070342;28;20055;-63
2024/01/15 09:56:02;;;;;;;7.15;2.63;;;3.20;99.90;;;;;;5071511;28;20168;-64
2024/01/15 09:58:29;;;;;;;6.82;3.22;;;3.10;99.90;;;;;;5092308;28;20064;-64
2024/01/15 10:00:57;;;;;;;9.85;3.53;;;3.00;99.90;;;;;;5090803;28;20514;-63
2024/01/15 10:03:24;;;;;;;9.68;4.40;;;2.80;99.90;;;;;;5072241;28;20056;-64
2024/01/15 10:05:52;;;;;;;7.63;3.03;;;2.70;99.90;;;;;;5073411;28;20109;-64
2024/01/15 10:08:20;;;;;;;9.60;3.28;;;2.60;99.90;;;;;;5071304;28;20494;-64
2024/01/15 10:10:49;;;;;;;7.57;2.55;;;2.70;99.90;;;;;;5073664;28;20403;-63
2024/01/15 10:13:17;;;;;;;7.78;2.80;;;2.70;99.90;;;;;;5072021;28;20127;-63
2024/01/15 10:15:47;;;;;;;9.82;2.90;;;2.90;99.90;;;;;;5071254;28;20470;-63
2024/01/15 10:18:14;;;;;;;;;;;2.70;99.90;;;;;;5074094;28;20437;-62
2024/01/15 10:20:42;;;;;;;8.82;3.30;;;2.60;99.90;;;;;;5078416;28;20114;-63
2024/01/15 10:23:09;;;;;;;6.00;2.50;;;2.60;99.90;;;;;;5049998;28;20452;-63
2024/01/15 10:25:38;;;;;;;5.18;2.88;;;2.50;99.90;;;;;;5052060;28;20493;-64
2024/01/15 10:28:05;;;;;;;9.65;3.10;;;2.50;99.90;;;;;;5069090;28;20553;-63
2024/01/15 10:30:34;;;;;;;9.10;2.75;;;2.50;99.90;;;;;;5052084;28;20067;-63
2024/01/15 10:33:02;;;;;;;6.05;2.67;;;2.60;99.90;;;;;;5051537;28;20476;-63
2024/01/15 10:35:31;;;;;;;6.72;3.13;;;2.70;99.90;;;;;;5052666;28;20126;-70
2024/01/15 10:37:57;;;;;;;3.97;2.10;;;3.50;99.90;;;;;;5051127;28;20113;-64
2024/01/15 10:40:24;;;;;;;4.70;2.40;;;4.70;99.90;;;;;;5052889;28;20103;-64
2024/01/15 10:42:53;;;;;;;7.68;2.47;;;5.80;99.90;;;;;;5071210;28;20103;-63
2024/01/15 10:45:20;;;;;;;6.32;2.83;;;5.70;99.90;;;;;;5068603;28;20438;-64
2024/01/15 10:47:48;;;;;;;7.57;2.20;;;5.20;99.90;;;;;;5051343;28;20063;-63
2024/01/15 10:50:15;;;;;;;5.93;2.70;;;4.70;99.90;;;;;;5050824;28;20099;-63
2024/01/15 10:52:44;;;;;;;4.22;1.80;;;4.50;99.90;;;;;;5068680;28;20052;-64
2024/01/15 10:55:11;;;;;;;3.83;1.65;;;4.20;99.90;;;;;;5051746;28;20056;-62
2024/01/15 10:57:39;;;;;;;5.18;1.98;;;4.10;99.90;;;;;;5052119;28;20416;-63
2024/01/15 11:00:14;;;;;;;3.55;2.00;;;4.00;99.90;;;;;;5053081;28;20094;-63
2024/01/15 11:02:42;;;;;;;4.93;1.73;;;3.80;99.90;;;;;;5049470;28;20056;-63
2024/01/15 11:05:09;;;;;;;2.28;1.70;;;3.80;99.90;;;;;;5052489;28;20098;-63
2024/01/15 11:07:36;;;;;;;2.70;1.63;;;3.80;99.90;;;;;;5049813;28;20110;-63
2024/01/15 11:10:05;;;;;;;3.30;1.80;;;3.60;99.90;;;;;;5051691;28;20045;-63
2024/01/15 11:12:33;;;;;;;4.65;1.80;;;3.40;99.90;;;;;;5053070;28;20097;-63
2024/01/15 11:15:05;;;;;;;11.63;4.38;;;3.30;99.90;;;;;;5070677;28;20068;-62
2024/01/15 11:17:59;;;;;;;3.67;2.17;;;3.20;99.90;;;;;;5056563;28;20088;-63
2024/01/15 11:20:26;;;;;;;10.73;5.03;;;3.00;99.90;;;;;;5062943;28;20087;-64
2024/01/15 11:22:53;;;;;;;8.75;4.05;;;3.00;99.90;;;;;;5075588;28;20049;-64
2024/01/15 11:25:20;;;;;;;9.55;5.70;;;3.10;99.90;;;;;;5073433;28;20049;-64
2024/01/15 11:27:51;;;;;;;8.18;4.43;;;4.30;99.90;;;;;;5075962;28;20095;-64
2024/01/15 11:30:19;;;;;;;7.57;3.47;;;5.90;99.90;;;;;;5091935;28;20047;-64
2024/01/15 11:32:48;;;;;;;5.32;3.10;;;6.60;99.90;;;;;;5094051;28;20059;-64
2024/01/15 11:35:16;;;;;;;7.40;3.80;;;6.60;99.90;;;;;;5075477;28;20457;-64
2024/01/15 11:37:59;;;;;;;10.60;5.30;;;5.90;99.90;;;;;;5073950;28;20052;-64
2024/01/15 11:40:38;;;;;;;7.38;4.07;;;5.50;99.90;;;;;;5089746;28;20075;-64
2024/01/15 11:43:06;;;;;;;10.38;5.82;;;4.90;99.90;;;;;;5075049;28;20503;-67
2024/01/15 11:45:34;;;;;;;5.50;4.38;;;4.70;99.90;;;;;;5073245;28;20080;-64
2024/01/15 11:48:26;;;;;;;6.38;3.30;;;4.30;99.90;;;;;;5093830;28;20119;-63
2024/01/15 11:50:53;;;;;;;5.03;2.60;;;3.60;99.90;;;;;;5074107;28;20049;-64
2024/01/15 11:53:33;;;;;;;3.83;2.28;;;3.40;99.90;;;;;;5074665;28;20506;-63
2024/01/15 11:56:03;;;;;;;3.78;1.40;;;3.20;99.90;;;;;;5074852;28;20153;-64
2024/01/15 11:58:30;;;;;;;5.45;1.75;;;3.00;99.90;;;;;;5075053;28;20101;-64
2024/01/15 12:00:58;;;;;;;4.05;1.60;;;2.90;99.90;;;;;;5067123;28;20416;-63
2024/01/15 12:03:26;;;;;;;5.22;2.25;;;3.00;99.90;;;;;;5073350;28;20048;-63
2024/01/15 12:05:53;;;;;;;9.15;6.05;;;2.70;99.90;;;;;;5091681;28;20040;-65
2024/01/15 12:08:22;;;;;;;7.03;4.97;;;2.60;99.90;;;;;;5093632;28;20070;-64
2024/01/15 12:10:49;;;;;;;5.80;4.10;;;2.50;99.90;;;;;;5091273;28;20488;-63
2024/01/15 12:13:17;;;;;;;7.68;4.15;;;2.40;99.90;;;;;;5071736;28;20408;-63
2024/01/15 12:15:45;;;;;;;4.07;2.78;;;2.50;99.90;;;;;;5074008;28;20041;-64
2024/01/15 12:18:14;;;;;;;6.45;2.85;;;2.50;99.90;;;;;;5074117;28;20052;-64
2024/01/15 12:20:43;;;;;;;11.43;6.40;;;2.60;99.90;;;;;;5072832;28;20452;-64
2024/01/15 12:23:11;;;;;;;10.43;6.63;;;2.70;99.90;;;;;;5092017;28;20044;-63
2024/01/15 12:25:38;;;;;;;15.20;7.30;;;2.80;99.90;;;;;;5071104;28;20061;-63
2024/01/15 12:28:06;;;;;;;9.00;3.42;;;2.80;99.90;;;;;;5074877;28;20459;-64
2024/01/15 12:30:35;;;;;;;7.68;3.22;;;2.90;99.90;;;;;;5072143;28;20048;-64
2024/01/15 12:33:04;;;;;;;11.07;3.13;;;3.30;99.90;;;;;;5072628;28;20051;-65
2024/01/15 12:35:31;;;;;;;7.68;3.10;;;3.30;99.90;;;;;;5070068;28;20444;-63
2024/01/15 12:38:02;;;;;;;8.57;2.65;;;4.40;99.90;;;;;;5073719;28;20055;-64
2024/01/15 12:40:28;;;;;;;;;;;4.90;99.90;;;;;;5073804;28;20045;-64
2024/01/15 12:42:56;;;;;;;13.15;4.10;;;4.90;99.90;;;;;;5073024;28;20493;-64
2024/01/15 12:45:22;;;;;;;12.27;6.13;;;5.00;99.90;;;;;;5075219;28;20048;-64
2024/01/15 12:47:51;;;;;;;8.45;4.78;;;5.10;99.90;;;;;;5073160;28;20052;-64
2024/01/15 12:50:17;;;;;;;13.18;6.68;;;6.00;99.90;;;;;;5092490;28;20047;-65
2024/01/15 12:52:45;;;;;;;9.32;4.15;;;6.30;99.90;;;;;;5073563;28;20052;-64
2024/01/15 12:55:14;;;;;;;10.60;4.30;;;6.00;99.90;;;;;;5074934;28;20101;-63